sensor_id;sensor_type;location;lat;lon;timestamp;P1;durP1;ratioP1;P2;durP2;ratioP2
31594;SDS011;18200;48.726;8.892;2024-01-30T00:02:58;26.00;;;12.05;;
31594;SDS011;18200;48.726;8.892;2024-01-30T00:06:59;27.23;;;14.02;;
31594;SDS011;18200;48.726;8.892;2024-01-30T00:10:59;27.98;;;14.13;;
31594;SDS011;18200;48.726;8.892;2024-01-30T00:15:00;24.48;;;12.70;;
31594;SDS011;18200;48.726;8.892;2024-01-30T00:19:01;26.75;;;13.50;;
31594;SDS011;18200;48.726;8.892;2024-01-30T00:23:02;26.50;;;13.85;;
31594;SDS011;18200;48.726;8.892;2024-01-30T00:27:03;24.20;;;12.57;;
31594;SDS011;18200;48.726;8.892;2024-01-30T00:31:03;24.48;;;13.65;;
31594;SDS011;18200;48.726;8.892;2024-01-30T00:35:04;24.77;;;12.85;;
31594;SDS011;18200;48.726;8.892;2024-01-30T00:39:05;23.05;;;12.38;;
31594;SDS011;18200;48.726;8.892;2024-01-30T00:43:07;24.08;;;12.02;;
31594;SDS011;18200;48.726;8.892;2024-01-30T00:47:07;21.85;;;11.52;;
31594;SDS011;18200;48.726;8.892;2024-01-30T00:51:08;22.40;;;12.20;;
31594;SDS011;18200;48.726;8.892;2024-01-30T00:55:08;23.67;;;11.90;;
31594;SDS011;18200;48.726;8.892;2024-01-30T00:59:08;21.50;;;11.63;;
31594;SDS011;18200;48.726;8.892;2024-01-30T01:03:09;24.42;;;12.05;;
31594;SDS011;18200;48.726;8.892;2024-01-30T01:07:09;24.13;;;12.02;;
31594;SDS011;18200;48.726;8.892;2024-01-30T01:11:10;27.77;;;12.32;;
31594;SDS011;18200;48.726;8.892;2024-01-30T01:15:10;23.67;;;12.27;;
31594;SDS011;18200;48.726;8.892;2024-01-30T01:19:11;20.35;;;11.18;;
31594;SDS011;18200;48.726;8.892;2024-01-30T01:23:11;26.27;;;14.40;;
31594;SDS011;18200;48.726;8.892;2024-01-30T01:27:12;24.30;;;11.88;;
31594;SDS011;18200;48.726;8.892;2024-01-30T01:31:12;20.15;;;11.00;;
31594;SDS011;18200;48.726;8.892;2024-01-30T01:35:12;19.38;;;10.40;;
31594;SDS011;18200;48.726;8.892;2024-01-30T01:39:13;18.67;;;9.63;;
31594;SDS011;18200;48.726;8.892;2024-01-30T01:43:13;23.10;;;11.38;;
31594;SDS011;18200;48.726;8.892;2024-01-30T01:47:14;19.58;;;10.35;;
31594;SDS011;18200;48.726;8.892;2024-01-30T01:51:15;19.42;;;11.07;;
31594;SDS011;18200;48.726;8.892;2024-01-30T01:55:16;23.25;;;11.50;;
31594;SDS011;18200;48.726;8.892;2024-01-30T01:59:18;22.02;;;11.15;;
31594;SDS011;18200;48.726;8.892;2024-01-30T02:03:20;21.70;;;11.13;;
31594;SDS011;18200;48.726;8.892;2024-01-30T02:07:21;21.33;;;10.88;;
31594;SDS011;18200;48.726;8.892;2024-01-30T02:11:22;25.25;;;11.90;;
31594;SDS011;18200;48.726;8.892;2024-01-30T02:15:23;21.65;;;11.43;;
31594;SDS011;18200;48.726;8.892;2024-01-30T02:19:23;18.30;;;10.02;;
31594;SDS011;18200;48.726;8.892;2024-01-30T02:23:26;19.35;;;11.25;;
31594;SDS011;18200;48.726;8.892;2024-01-30T02:27:27;20.02;;;10.10;;
31594;SDS011;18200;48.726;8.892;2024-01-30T02:31:27;21.63;;;11.25;;
31594;SDS011;18200;48.726;8.892;2024-01-30T02:35:28;24.45;;;11.10;;
31594;SDS011;18200;48.726;8.892;2024-01-30T02:39:28;20.95;;;10.85;;
31594;SDS011;18200;48.726;8.892;2024-01-30T02:43:28;18.38;;;10.68;;
31594;SDS011;18200;48.726;8.892;2024-01-30T02:47:29;21.80;;;10.35;;
31594;SDS011;18200;48.726;8.892;2024-01-30T02:51:29;21.27;;;10.98;;
31594;SDS011;18200;48.726;8.892;2024-01-30T02:55:29;20.67;;;10.57;;
31594;SDS011;18200;48.726;8.892;2024-01-30T02:59:30;20.63;;;10.65;;
31594;SDS011;18200;48.726;8.892;2024-01-30T03:03:33;21.75;;;10.13;;
31594;SDS011;18200;48.726;8.892;2024-01-30T03:07:36;19.90;;;11.00;;
31594;SDS011;18200;48.726;8.892;2024-01-30T03:11:36;21.63;;;10.95;;
31594;SDS011;18200;48.726;8.892;2024-01-30T03:15:36;24.95;;;10.30;;
31594;SDS011;18200;48.726;8.892;2024-01-30T03:19:37;19.13;;;10.05;;
31594;SDS011;18200;48.726;8.892;2024-01-30T03:23:37;20.13;;;9.68;;
31594;SDS011;18200;48.726;8.892;2024-01-30T03:27:37;19.98;;;10.23;;
31594;SDS011;18200;48.726;8.892;2024-01-30T03:31:38;23.23;;;11.02;;
31594;SDS011;18200;48.726;8.892;2024-01-30T03:35:39;20.80;;;11.30;;
31594;SDS011;18200;48.726;8.892;2024-01-30T03:39:39;19.58;;;10.45;;
31594;SDS011;18200;48.726;8.892;2024-01-30T03:43:40;19.40;;;9.55;;
31594;SDS011;18200;48.726;8.892;2024-01-30T03:47:43;25.33;;;11.20;;
31594;SDS011;18200;48.726;8.892;2024-01-30T03:51:43;14.45;;;8.38;;
31594;SDS011;18200;48.726;8.892;2024-01-30T03:55:44;21.23;;;10.93;;
31594;SDS011;18200;48.726;8.892;2024-01-30T03:59:45;17.65;;;9.20;;
31594;SDS011;18200;48.726;8.892;2024-01-30T04:03:45;20.05;;;11.13;;
31594;SDS011;18200;48.726;8.892;2024-01-30T04:07:45;18.48;;;9.65;;
31594;SDS011;18200;48.726;8.892;2024-01-30T04:11:46;25.10;;;10.75;;
31594;SDS011;18200;48.726;8.892;2024-01-30T04:15:46;21.80;;;10.88;;
31594;SDS011;18200;48.726;8.892;2024-01-30T04:19:46;15.13;;;9.20;;
31594;SDS011;18200;48.726;8.892;2024-01-30T04:23:47;19.08;;;11.07;;
31594;SDS011;18200;48.726;8.892;2024-01-30T04:27:48;21.70;;;10.82;;
31594;SDS011;18200;48.726;8.892;2024-01-30T04:31:48;18.85;;;9.57;;
31594;SDS011;18200;48.726;8.892;2024-01-30T04:35:48;18.63;;;9.55;;
31594;SDS011;18200;48.726;8.892;2024-01-30T04:39:49;16.30;;;9.52;;
31594;SDS011;18200;48.726;8.892;2024-01-30T04:43:49;19.05;;;8.55;;
31594;SDS011;18200;48.726;8.892;2024-01-30T04:47:49;16.38;;;8.93;;
31594;SDS011;18200;48.726;8.892;2024-01-30T04:51:50;15.05;;;8.57;;
31594;SDS011;18200;48.726;8.892;2024-01-30T04:55:50;18.80;;;9.68;;
31594;SDS011;18200;48.726;8.892;2024-01-30T04:59:51;16.75;;;9.30;;
31594;SDS011;18200;48.726;8.892;2024-01-30T05:03:51;20.55;;;9.68;;
31594;SDS011;18200;48.726;8.892;2024-01-30T05:07:51;18.95;;;9.85;;
31594;SDS011;18200;48.726;8.892;2024-01-30T05:11:52;20.92;;;9.40;;
31594;SDS011;18200;48.726;8.892;2024-01-30T05:15:52;24.88;;;12.93;;
31594;SDS011;18200;48.726;8.892;2024-01-30T05:19:52;27.02;;;13.57;;
31594;SDS011;18200;48.726;8.892;2024-01-30T05:23:53;22.20;;;12.07;;
31594;SDS011;18200;48.726;8.892;2024-01-30T05:27:53;18.58;;;9.65;;
31594;SDS011;18200;48.726;8.892;2024-01-30T05:31:55;25.98;;;14.10;;
31594;SDS011;18200;48.726;8.892;2024-01-30T05:35:55;17.17;;;9.07;;
31594;SDS011;18200;48.726;8.892;2024-01-30T05:39:56;19.08;;;9.50;;
31594;SDS011;18200;48.726;8.892;2024-01-30T05:43:56;24.95;;;10.45;;
31594;SDS011;18200;48.726;8.892;2024-01-30T05:47:56;31.30;;;16.00;;
31594;SDS011;18200;48.726;8.892;2024-01-30T05:51:57;47.88;;;20.10;;
31594;SDS011;18200;48.726;8.892;2024-01-30T05:55:57;35.67;;;17.80;;
31594;SDS011;18200;48.726;8.892;2024-01-30T05:59:58;23.17;;;10.75;;
31594;SDS011;18200;48.726;8.892;2024-01-30T06:03:58;31.23;;;13.95;;
31594;SDS011;18200;48.726;8.892;2024-01-30T06:07:58;23.10;;;10.55;;
31594;SDS011;18200;48.726;8.892;2024-01-30T06:11:59;21.67;;;11.00;;
31594;SDS011;18200;48.726;8.892;2024-01-30T06:15:59;24.45;;;12.88;;
31594;SDS011;18200;48.726;8.892;2024-01-30T06:19:59;23.45;;;13.45;;
31594;SDS011;18200;48.726;8.892;2024-01-30T06:24:00;33.63;;;16.42;;
31594;SDS011;18200;48.726;8.892;2024-01-30T06:28:00;27.42;;;13.80;;
31594;SDS011;18200;48.726;8.892;2024-01-30T06:32:01;31.60;;;14.60;;
31594;SDS011;18200;48.726;8.892;2024-01-30T06:36:01;30.55;;;15.43;;
31594;SDS011;18200;48.726;8.892;2024-01-30T06:40:01;46.10;;;22.83;;
31594;SDS011;18200;48.726;8.892;2024-01-30T06:44:02;47.47;;;23.13;;
31594;SDS011;18200;48.726;8.892;2024-01-30T06:48:04;36.10;;;18.15;;
31594;SDS011;18200;48.726;8.892;2024-01-30T06:52:05;34.22;;;17.08;;
31594;SDS011;18200;48.726;8.892;2024-01-30T06:56:06;32.45;;;15.88;;
31594;SDS011;18200;48.726;8.892;2024-01-30T07:00:06;29.02;;;15.55;;
31594;SDS011;18200;48.726;8.892;2024-01-30T07:04:07;23.60;;;14.63;;
31594;SDS011;18200;48.726;8.892;2024-01-30T07:08:07;25.52;;;11.98;;
31594;SDS011;18200;48.726;8.892;2024-01-30T07:12:08;18.52;;;11.07;;
31594;SDS011;18200;48.726;8.892;2024-01-30T07:16:08;19.48;;;11.25;;
31594;SDS011;18200;48.726;8.892;2024-01-30T07:20:09;22.58;;;12.10;;
31594;SDS011;18200;48.726;8.892;2024-01-30T07:24:10;19.90;;;10.32;;
31594;SDS011;18200;48.726;8.892;2024-01-30T07:28:11;20.95;;;11.65;;
31594;SDS011;18200;48.726;8.892;2024-01-30T07:32:13;25.85;;;13.27;;
31594;SDS011;18200;48.726;8.892;2024-01-30T07:36:13;22.05;;;11.85;;
31594;SDS011;18200;48.726;8.892;2024-01-30T07:40:14;22.92;;;11.57;;
31594;SDS011;18200;48.726;8.892;2024-01-30T07:44:14;16.58;;;9.95;;
31594;SDS011;18200;48.726;8.892;2024-01-30T07:48:14;20.30;;;11.52;;
31594;SDS011;18200;48.726;8.892;2024-01-30T07:52:15;17.38;;;11.25;;
31594;SDS011;18200;48.726;8.892;2024-01-30T07:56:16;23.67;;;14.25;;
31594;SDS011;18200;48.726;8.892;2024-01-30T08:00:16;23.13;;;13.27;;
31594;SDS011;18200;48.726;8.892;2024-01-30T08:04:17;24.70;;;14.25;;
31594;SDS011;18200;48.726;8.892;2024-01-30T08:08:17;23.20;;;12.15;;
31594;SDS011;18200;48.726;8.892;2024-01-30T08:12:18;20.90;;;10.65;;
31594;SDS011;18200;48.726;8.892;2024-01-30T08:16:18;21.35;;;10.02;;
31594;SDS011;18200;48.726;8.892;2024-01-30T08:20:18;15.80;;;9.48;;
31594;SDS011;18200;48.726;8.892;2024-01-30T08:24:19;20.10;;;8.88;;
31594;SDS011;18200;48.726;8.892;2024-01-30T08:28:19;22.33;;;11.93;;
31594;SDS011;18200;48.726;8.892;2024-01-30T08:32:19;23.60;;;14.18;;
31594;SDS011;18200;48.726;8.892;2024-01-30T08:36:20;30.13;;;15.32;;
31594;SDS011;18200;48.726;8.892;2024-01-30T08:40:20;25.17;;;13.10;;
31594;SDS011;18200;48.726;8.892;2024-01-30T08:44:21;25.48;;;14.23;;
31594;SDS011;18200;48.726;8.892;2024-01-30T08:48:21;21.98;;;12.85;;
31594;SDS011;18200;48.726;8.892;2024-01-30T08:52:22;23.33;;;13.02;;
31594;SDS011;18200;48.726;8.892;2024-01-30T08:56:23;28.77;;;16.73;;
31594;SDS011;18200;48.726;8.892;2024-01-30T09:00:23;28.17;;;15.02;;
31594;SDS011;18200;48.726;8.892;2024-01-30T09:04:23;29.92;;;19.52;;
31594;SDS011;18200;48.726;8.892;2024-01-30T09:08:24;25.70;;;12.82;;
31594;SDS011;18200;48.726;8.892;2024-01-30T09:12:24;21.10;;;11.18;;
31594;SDS011;18200;48.726;8.892;2024-01-30T09:16:24;32.53;;;13.80;;
31594;SDS011;18200;48.726;8.892;2024-01-30T09:20:25;24.27;;;12.27;;
31594;SDS011;18200;48.726;8.892;2024-01-30T09:24:26;20.15;;;11.20;;
31594;SDS011;18200;48.726;8.892;2024-01-30T09:28:27;18.90;;;10.15;;
31594;SDS011;18200;48.726;8.892;2024-01-30T09:32:27;18.50;;;10.63;;
31594;SDS011;18200;48.726;8.892;2024-01-30T09:36:27;17.25;;;9.60;;
31594;SDS011;18200;48.726;8.892;2024-01-30T09:40:28;18.48;;;11.02;;
31594;SDS011;18200;48.726;8.892;2024-01-30T09:44:29;20.02;;;10.68;;
31594;SDS011;18200;48.726;8.892;2024-01-30T09:48:30;22.73;;;11.57;;
31594;SDS011;18200;48.726;8.892;2024-01-30T09:52:33;21.77;;;11.77;;
31594;SDS011;18200;48.726;8.892;2024-01-30T09:56:33;22.38;;;13.35;;
31594;SDS011;18200;48.726;8.892;2024-01-30T10:00:33;25.38;;;14.05;;
31594;SDS011;18200;48.726;8.892;2024-01-30T10:04:34;21.02;;;12.23;;
31594;SDS011;18200;48.726;8.892;2024-01-30T10:08:34;22.30;;;11.70;;
31594;SDS011;18200;48.726;8.892;2024-01-30T10:12:35;21.65;;;11.77;;
31594;SDS011;18200;48.726;8.892;2024-01-30T10:16:35;25.17;;;13.95;;
31594;SDS011;18200;48.726;8.892;2024-01-30T10:20:36;24.55;;;12.77;;
31594;SDS011;18200;48.726;8.892;2024-01-30T10:24:37;38.50;;;20.02;;
31594;SDS011;18200;48.726;8.892;2024-01-30T10:28:37;39.80;;;16.70;;
31594;SDS011;18200;48.726;8.892;2024-01-30T10:32:37;24.65;;;14.10;;
31594;SDS011;18200;48.726;8.892;2024-01-30T10:36:41;28.77;;;13.02;;
31594;SDS011;18200;48.726;8.892;2024-01-30T10:40:46;21.85;;;11.55;;
31594;SDS011;18200;48.726;8.892;2024-01-30T10:48:58;26.52;;;12.93;;
31594;SDS011;18200;48.726;8.892;2024-01-30T10:52:59;22.77;;;12.35;;
31594;SDS011;18200;48.726;8.892;2024-01-30T10:57:01;23.77;;;11.98;;
31594;SDS011;18200;48.726;8.892;2024-01-30T11:01:04;30.23;;;14.15;;
31594;SDS011;18200;48.726;8.892;2024-01-30T11:05:06;27.27;;;15.93;;
31594;SDS011;18200;48.726;8.892;2024-01-30T11:09:09;32.35;;;15.38;;
31594;SDS011;18200;48.726;8.892;2024-01-30T11:13:15;26.65;;;14.40;;
31594;SDS011;18200;48.726;8.892;2024-01-30T11:17:16;34.08;;;16.52;;
31594;SDS011;18200;48.726;8.892;2024-01-30T11:21:16;30.85;;;14.00;;
31594;SDS011;18200;48.726;8.892;2024-01-30T11:25:17;27.80;;;14.32;;
31594;SDS011;18200;48.726;8.892;2024-01-30T11:29:19;31.33;;;15.05;;
31594;SDS011;18200;48.726;8.892;2024-01-30T11:33:29;25.50;;;14.25;;
31594;SDS011;18200;48.726;8.892;2024-01-30T11:37:30;30.77;;;14.77;;
31594;SDS011;18200;48.726;8.892;2024-01-30T11:41:31;27.42;;;13.75;;
31594;SDS011;18200;48.726;8.892;2024-01-30T11:45:32;22.67;;;12.63;;
31594;SDS011;18200;48.726;8.892;2024-01-30T11:49:33;18.25;;;9.63;;
31594;SDS011;18200;48.726;8.892;2024-01-30T11:53:34;20.45;;;12.05;;
31594;SDS011;18200;48.726;8.892;2024-01-30T11:57:34;21.80;;;11.38;;
31594;SDS011;18200;48.726;8.892;2024-01-30T12:01:36;20.35;;;11.90;;
31594;SDS011;18200;48.726;8.892;2024-01-30T12:05:37;10.57;;;6.60;;
31594;SDS011;18200;48.726;8.892;2024-01-30T12:09:51;12.10;;;6.28;;
31594;SDS011;18200;48.726;8.892;2024-01-30T12:13:52;13.75;;;6.13;;
31594;SDS011;18200;48.726;8.892;2024-01-30T12:18:03;11.75;;;5.90;;
31594;SDS011;18200;48.726;8.892;2024-01-30T12:22:04;8.80;;;5.40;;
31594;SDS011;18200;48.726;8.892;2024-01-30T12:26:04;10.13;;;3.90;;
31594;SDS011;18200;48.726;8.892;2024-01-30T12:30:11;9.00;;;4.03;;
31594;SDS011;18200;48.726;8.892;2024-01-30T12:34:13;10.15;;;4.75;;
31594;SDS011;18200;48.726;8.892;2024-01-30T12:38:15;6.78;;;4.00;;
31594;SDS011;18200;48.726;8.892;2024-01-30T12:42:16;7.30;;;4.15;;
31594;SDS011;18200;48.726;8.892;2024-01-30T12:46:16;6.45;;;3.65;;
31594;SDS011;18200;48.726;8.892;2024-01-30T12:50:17;7.00;;;3.50;;
31594;SDS011;18200;48.726;8.892;2024-01-30T12:54:18;8.77;;;3.55;;
31594;SDS011;18200;48.726;8.892;2024-01-30T12:58:19;6.80;;;3.80;;
31594;SDS011;18200;48.726;8.892;2024-01-30T13:02:19;7.28;;;3.83;;
31594;SDS011;18200;48.726;8.892;2024-01-30T13:06:20;5.68;;;2.85;;
31594;SDS011;18200;48.726;8.892;2024-01-30T13:10:20;7.00;;;3.00;;
31594;SDS011;18200;48.726;8.892;2024-01-30T13:14:20;6.82;;;3.38;;
31594;SDS011;18200;48.726;8.892;2024-01-30T13:18:21;5.53;;;3.10;;
31594;SDS011;18200;48.726;8.892;2024-01-30T13:22:21;6.75;;;4.10;;
31594;SDS011;18200;48.726;8.892;2024-01-30T13:26:21;5.75;;;3.83;;
31594;SDS011;18200;48.726;8.892;2024-01-30T13:30:22;6.38;;;3.20;;
31594;SDS011;18200;48.726;8.892;2024-01-30T13:34:22;5.97;;;3.08;;
31594;SDS011;18200;48.726;8.892;2024-01-30T13:38:22;5.75;;;3.00;;
31594;SDS011;18200;48.726;8.892;2024-01-30T13:42:23;5.65;;;3.10;;
31594;SDS011;18200;48.726;8.892;2024-01-30T13:46:23;5.45;;;2.90;;
31594;SDS011;18200;48.726;8.892;2024-01-30T13:50:24;5.65;;;2.72;;
31594;SDS011;18200;48.726;8.892;2024-01-30T13:54:24;6.20;;;2.80;;
31594;SDS011;18200;48.726;8.892;2024-01-30T13:58:25;4.88;;;2.95;;
31594;SDS011;18200;48.726;8.892;2024-01-30T14:02:25;7.55;;;3.60;;
31594;SDS011;18200;48.726;8.892;2024-01-30T14:06:25;4.82;;;2.88;;
31594;SDS011;18200;48.726;8.892;2024-01-30T14:10:26;7.35;;;3.40;;
31594;SDS011;18200;48.726;8.892;2024-01-30T14:14:26;8.38;;;3.83;;
31594;SDS011;18200;48.726;8.892;2024-01-30T14:18:27;7.68;;;3.90;;
31594;SDS011;18200;48.726;8.892;2024-01-30T14:22:27;11.95;;;4.85;;
31594;SDS011;18200;48.726;8.892;2024-01-30T14:26:27;9.32;;;4.45;;
31594;SDS011;18200;48.726;8.892;2024-01-30T14:30:28;9.60;;;4.20;;
31594;SDS011;18200;48.726;8.892;2024-01-30T14:34:28;12.90;;;4.32;;
31594;SDS011;18200;48.726;8.892;2024-01-30T14:38:28;11.38;;;4.47;;
31594;SDS011;18200;48.726;8.892;2024-01-30T14:42:29;7.43;;;3.95;;
31594;SDS011;18200;48.726;8.892;2024-01-30T14:46:31;11.60;;;5.78;;
31594;SDS011;18200;48.726;8.892;2024-01-30T14:50:32;14.80;;;5.50;;
31594;SDS011;18200;48.726;8.892;2024-01-30T14:54:32;10.52;;;5.03;;
31594;SDS011;18200;48.726;8.892;2024-01-30T14:58:33;10.07;;;4.38;;
31594;SDS011;18200;48.726;8.892;2024-01-30T15:02:33;7.85;;;4.65;;
31594;SDS011;18200;48.726;8.892;2024-01-30T15:06:34;11.15;;;4.40;;
31594;SDS011;18200;48.726;8.892;2024-01-30T15:10:34;9.00;;;4.43;;
31594;SDS011;18200;48.726;8.892;2024-01-30T15:14:35;10.18;;;4.35;;
31594;SDS011;18200;48.726;8.892;2024-01-30T15:18:35;9.63;;;4.43;;
31594;SDS011;18200;48.726;8.892;2024-01-30T15:22:36;6.95;;;4.60;;
31594;SDS011;18200;48.726;8.892;2024-01-30T15:26:36;11.30;;;5.22;;
31594;SDS011;18200;48.726;8.892;2024-01-30T15:30:37;9.40;;;4.93;;
31594;SDS011;18200;48.726;8.892;2024-01-30T15:34:37;10.18;;;4.70;;
31594;SDS011;18200;48.726;8.892;2024-01-30T15:38:38;12.13;;;6.40;;
31594;SDS011;18200;48.726;8.892;2024-01-30T15:51:04;9.88;;;5.63;;
31594;SDS011;18200;48.726;8.892;2024-01-30T15:55:04;14.43;;;8.05;;
31594;SDS011;18200;48.726;8.892;2024-01-30T15:59:05;19.13;;;6.75;;
31594;SDS011;18200;48.726;8.892;2024-01-30T16:03:05;10.70;;;6.05;;
31594;SDS011;18200;48.726;8.892;2024-01-30T16:07:06;12.98;;;6.15;;
31594;SDS011;18200;48.726;8.892;2024-01-30T16:11:07;15.20;;;8.00;;
31594;SDS011;18200;48.726;8.892;2024-01-30T16:15:08;12.35;;;6.88;;
31594;SDS011;18200;48.726;8.892;2024-01-30T16:19:09;14.02;;;7.35;;
31594;SDS011;18200;48.726;8.892;2024-01-30T16:23:09;13.65;;;7.05;;
31594;SDS011;18200;48.726;8.892;2024-01-30T16:27:10;17.58;;;7.28;;
31594;SDS011;18200;48.726;8.892;2024-01-30T16:31:10;18.70;;;7.93;;
31594;SDS011;18200;48.726;8.892;2024-01-30T16:35:11;17.98;;;7.82;;
31594;SDS011;18200;48.726;8.892;2024-01-30T16:39:11;19.67;;;9.40;;
31594;SDS011;18200;48.726;8.892;2024-01-30T16:43:12;23.73;;;9.93;;
31594;SDS011;18200;48.726;8.892;2024-01-30T16:47:12;24.05;;;13.93;;
31594;SDS011;18200;48.726;8.892;2024-01-30T16:51:12;22.85;;;15.10;;
31594;SDS011;18200;48.726;8.892;2024-01-30T16:55:13;24.52;;;15.02;;
31594;SDS011;18200;48.726;8.892;2024-01-30T16:59:14;22.40;;;13.32;;
31594;SDS011;18200;48.726;8.892;2024-01-30T17:03:15;24.40;;;14.95;;
31594;SDS011;18200;48.726;8.892;2024-01-30T17:07:15;37.63;;;16.83;;
31594;SDS011;18200;48.726;8.892;2024-01-30T17:11:16;25.65;;;14.45;;
31594;SDS011;18200;48.726;8.892;2024-01-30T17:15:16;19.40;;;11.50;;
31594;SDS011;18200;48.726;8.892;2024-01-30T17:19:17;19.10;;;9.70;;
31594;SDS011;18200;48.726;8.892;2024-01-30T17:23:17;17.30;;;10.07;;
31594;SDS011;18200;48.726;8.892;2024-01-30T17:27:18;22.23;;;11.93;;
31594;SDS011;18200;48.726;8.892;2024-01-30T17:31:18;35.85;;;18.55;;
31594;SDS011;18200;48.726;8.892;2024-01-30T17:35:19;39.97;;;18.70;;
31594;SDS011;18200;48.726;8.892;2024-01-30T17:39:19;25.23;;;14.13;;
31594;SDS011;18200;48.726;8.892;2024-01-30T17:43:20;28.45;;;14.57;;
31594;SDS011;18200;48.726;8.892;2024-01-30T17:47:20;57.45;;;19.55;;
31594;SDS011;18200;48.726;8.892;2024-01-30T17:51:20;49.00;;;21.17;;
31594;SDS011;18200;48.726;8.892;2024-01-30T17:55:21;61.97;;;28.63;;
31594;SDS011;18200;48.726;8.892;2024-01-30T17:59:22;50.67;;;26.27;;
31594;SDS011;18200;48.726;8.892;2024-01-30T18:03:23;47.10;;;25.00;;
31594;SDS011;18200;48.726;8.892;2024-01-30T18:07:23;46.67;;;22.80;;
31594;SDS011;18200;48.726;8.892;2024-01-30T18:11:23;38.97;;;21.13;;
31594;SDS011;18200;48.726;8.892;2024-01-30T18:15:24;32.03;;;16.35;;
31594;SDS011;18200;48.726;8.892;2024-01-30T18:19:24;214.50;;;98.45;;
31594;SDS011;18200;48.726;8.892;2024-01-30T18:23:25;62.03;;;33.92;;
31594;SDS011;18200;48.726;8.892;2024-01-30T18:27:25;38.17;;;21.05;;
31594;SDS011;18200;48.726;8.892;2024-01-30T18:31:26;25.55;;;14.43;;
31594;SDS011;18200;48.726;8.892;2024-01-30T18:35:26;30.35;;;19.52;;
31594;SDS011;18200;48.726;8.892;2024-01-30T18:39:26;32.35;;;19.52;;
31594;SDS011;18200;48.726;8.892;2024-01-30T18:43:27;28.92;;;18.40;;
31594;SDS011;18200;48.726;8.892;2024-01-30T18:47:27;33.50;;;19.13;;
31594;SDS011;18200;48.726;8.892;2024-01-30T18:51:28;39.15;;;22.75;;
31594;SDS011;18200;48.726;8.892;2024-01-30T18:55:28;32.58;;;19.77;;
31594;SDS011;18200;48.726;8.892;2024-01-30T18:59:29;24.20;;;12.82;;
31594;SDS011;18200;48.726;8.892;2024-01-30T19:03:30;21.48;;;11.38;;
31594;SDS011;18200;48.726;8.892;2024-01-30T19:07:30;23.90;;;12.10;;
31594;SDS011;18200;48.726;8.892;2024-01-30T19:11:31;33.17;;;17.90;;
31594;SDS011;18200;48.726;8.892;2024-01-30T19:15:31;40.88;;;21.40;;
31594;SDS011;18200;48.726;8.892;2024-01-30T19:19:32;34.33;;;18.35;;
31594;SDS011;18200;48.726;8.892;2024-01-30T19:23:33;34.97;;;18.83;;
31594;SDS011;18200;48.726;8.892;2024-01-30T19:27:34;49.13;;;24.63;;
31594;SDS011;18200;48.726;8.892;2024-01-30T19:31:34;35.22;;;20.58;;
31594;SDS011;18200;48.726;8.892;2024-01-30T19:35:34;31.13;;;17.88;;
31594;SDS011;18200;48.726;8.892;2024-01-30T19:39:35;24.08;;;14.73;;
31594;SDS011;18200;48.726;8.892;2024-01-30T19:43:35;30.20;;;16.70;;
31594;SDS011;18200;48.726;8.892;2024-01-30T19:47:36;24.75;;;13.32;;
31594;SDS011;18200;48.726;8.892;2024-01-30T19:51:36;24.60;;;13.43;;
31594;SDS011;18200;48.726;8.892;2024-01-30T19:55:36;24.88;;;13.38;;
31594;SDS011;18200;48.726;8.892;2024-01-30T19:59:37;33.08;;;16.58;;
31594;SDS011;18200;48.726;8.892;2024-01-30T20:03:37;35.65;;;20.17;;
31594;SDS011;18200;48.726;8.892;2024-01-30T20:07:39;27.75;;;17.50;;
31594;SDS011;18200;48.726;8.892;2024-01-30T20:11:39;29.40;;;17.23;;
31594;SDS011;18200;48.726;8.892;2024-01-30T20:15:40;27.05;;;15.05;;
31594;SDS011;18200;48.726;8.892;2024-01-30T20:19:43;29.55;;;17.40;;
31594;SDS011;18200;48.726;8.892;2024-01-30T20:23:43;28.17;;;15.90;;
31594;SDS011;18200;48.726;8.892;2024-01-30T20:27:44;29.85;;;16.30;;
31594;SDS011;18200;48.726;8.892;2024-01-30T20:31:44;27.30;;;14.38;;
31594;SDS011;18200;48.726;8.892;2024-01-30T20:35:45;25.20;;;15.00;;
31594;SDS011;18200;48.726;8.892;2024-01-30T20:39:45;33.80;;;17.58;;
31594;SDS011;18200;48.726;8.892;2024-01-30T20:43:46;38.80;;;19.42;;
31594;SDS011;18200;48.726;8.892;2024-01-30T20:47:46;38.72;;;19.27;;
31594;SDS011;18200;48.726;8.892;2024-01-30T20:51:47;32.47;;;17.55;;
31594;SDS011;18200;48.726;8.892;2024-01-30T20:55:47;36.60;;;20.92;;
31594;SDS011;18200;48.726;8.892;2024-01-30T20:59:48;39.30;;;19.40;;
31594;SDS011;18200;48.726;8.892;2024-01-30T21:03:48;29.90;;;16.98;;
31594;SDS011;18200;48.726;8.892;2024-01-30T21:07:52;37.08;;;19.60;;
31594;SDS011;18200;48.726;8.892;2024-01-30T21:11:53;35.28;;;18.13;;
31594;SDS011;18200;48.726;8.892;2024-01-30T21:15:53;28.42;;;16.23;;
31594;SDS011;18200;48.726;8.892;2024-01-30T21:19:54;36.90;;;18.75;;
31594;SDS011;18200;48.726;8.892;2024-01-30T21:23:54;30.58;;;16.15;;
31594;SDS011;18200;48.726;8.892;2024-01-30T21:27:55;30.02;;;16.50;;
31594;SDS011;18200;48.726;8.892;2024-01-30T21:31:55;31.90;;;17.55;;
31594;SDS011;18200;48.726;8.892;2024-01-30T21:35:55;31.48;;;17.20;;
31594;SDS011;18200;48.726;8.892;2024-01-30T21:39:56;28.67;;;16.58;;
31594;SDS011;18200;48.726;8.892;2024-01-30T21:43:56;42.70;;;22.50;;
31594;SDS011;18200;48.726;8.892;2024-01-30T21:47:57;33.30;;;19.17;;
31594;SDS011;18200;48.726;8.892;2024-01-30T21:51:57;33.47;;;16.92;;
31594;SDS011;18200;48.726;8.892;2024-01-30T21:55:57;29.85;;;17.88;;
31594;SDS011;18200;48.726;8.892;2024-01-30T21:59:58;33.03;;;16.10;;
31594;SDS011;18200;48.726;8.892;2024-01-30T22:03:58;30.88;;;16.45;;
31594;SDS011;18200;48.726;8.892;2024-01-30T22:07:59;26.73;;;15.27;;
31594;SDS011;18200;48.726;8.892;2024-01-30T22:12:00;31.17;;;15.82;;
31594;SDS011;18200;48.726;8.892;2024-01-30T22:16:00;29.00;;;15.63;;
31594;SDS011;18200;48.726;8.892;2024-01-30T22:20:01;25.00;;;14.20;;
31594;SDS011;18200;48.726;8.892;2024-01-30T22:24:01;26.05;;;14.63;;
31594;SDS011;18200;48.726;8.892;2024-01-30T22:28:02;27.52;;;14.75;;
31594;SDS011;18200;48.726;8.892;2024-01-30T22:32:02;28.60;;;13.98;;
31594;SDS011;18200;48.726;8.892;2024-01-30T22:36:04;23.17;;;12.35;;
31594;SDS011;18200;48.726;8.892;2024-01-30T22:40:05;31.00;;;17.33;;
31594;SDS011;18200;48.726;8.892;2024-01-30T22:44:06;19.88;;;11.18;;
31594;SDS011;18200;48.726;8.892;2024-01-30T22:48:06;21.80;;;11.25;;
31594;SDS011;18200;48.726;8.892;2024-01-30T22:52:07;17.88;;;9.85;;
31594;SDS011;18200;48.726;8.892;2024-01-30T22:56:07;20.88;;;10.65;;
31594;SDS011;18200;48.726;8.892;2024-01-30T23:00:08;18.35;;;9.70;;
31594;SDS011;18200;48.726;8.892;2024-01-30T23:04:14;19.05;;;9.88;;
31594;SDS011;18200;48.726;8.892;2024-01-30T23:08:14;21.80;;;11.65;;
31594;SDS011;18200;48.726;8.892;2024-01-30T23:12:15;26.58;;;12.27;;
31594;SDS011;18200;48.726;8.892;2024-01-30T23:16:15;21.08;;;11.95;;
31594;SDS011;18200;48.726;8.892;2024-01-30T23:20:16;20.52;;;12.27;;
31594;SDS011;18200;48.726;8.892;2024-01-30T23:24:16;23.50;;;13.18;;
31594;SDS011;18200;48.726;8.892;2024-01-30T23:28:17;19.70;;;11.43;;
31594;SDS011;18200;48.726;8.892;2024-01-30T23:32:17;21.52;;;11.55;;
31594;SDS011;18200;48.726;8.892;2024-01-30T23:36:17;23.00;;;12.52;;
31594;SDS011;18200;48.726;8.892;2024-01-30T23:40:18;19.40;;;11.80;;
31594;SDS011;18200;48.726;8.892;2024-01-30T23:44:18;23.52;;;13.23;;
31594;SDS011;18200;48.726;8.892;2024-01-30T23:48:18;28.17;;;13.05;;